sensor_id;sensor_type;location;lat;lon;timestamp;temperature;humidity
324;DHT22;149;51.094;17.002;2023-04-15T00:00:32;10.60;99.90
324;DHT22;149;51.094;17.002;2023-04-15T00:03:00;10.60;99.90
324;DHT22;149;51.094;17.002;2023-04-15T00:05:31;10.70;99.90
324;DHT22;149;51.094;17.002;2023-04-15T00:07:58;10.70;99.90
324;DHT22;149;51.094;17.002;2023-04-15T00:10:25;10.60;99.90
324;DHT22;149;51.094;17.002;2023-04-15T00:12:52;10.60;99.90
324;DHT22;149;51.094;17.002;2023-04-15T00:15:19;10.60;99.90
324;DHT22;149;51.094;17.002;2023-04-15T00:17:48;10.60;99.90
324;DHT22;149;51.094;17.002;2023-04-15T00:20:15;10.60;99.90
324;DHT22;149;51.094;17.002;2023-04-15T00:22:43;10.60;99.90
324;DHT22;149;51.094;17.002;2023-04-15T00:25:09;11.40;99.90
324;DHT22;149;51.094;17.002;2023-04-15T00:27:37;10.70;99.90
324;DHT22;149;51.094;17.002;2023-04-15T00:30:04;10.70;99.90
324;DHT22;149;51.094;17.002;2023-04-15T00:32:32;10.60;99.90
324;DHT22;149;51.094;17.002;2023-04-15T00:34:58;10.60;99.90
324;DHT22;149;51.094;17.002;2023-04-15T00:37:26;10.70;99.90
324;DHT22;149;51.094;17.002;2023-04-15T00:39:52;10.50;99.90
324;DHT22;149;51.094;17.002;2023-04-15T00:42:19;10.60;99.90
324;DHT22;149;51.094;17.002;2023-04-15T00:44:47;10.60;99.90
324;DHT22;149;51.094;17.002;2023-04-15T00:47:15;10.70;99.90
324;DHT22;149;51.094;17.002;2023-04-15T00:49:43;10.80;99.90
324;DHT22;149;51.094;17.002;2023-04-15T00:52:10;10.80;99.90
324;DHT22;149;51.094;17.002;2023-04-15T00:54:36;10.80;99.90
324;DHT22;149;51.094;17.002;2023-04-15T00:57:05;10.80;99.90
324;DHT22;149;51.094;17.002;2023-04-15T00:59:32;10.70;99.90
324;DHT22;149;51.094;17.002;2023-04-15T01:02:00;10.80;99.90
324;DHT22;149;51.094;17.002;2023-04-15T01:04:28;10.70;99.90
324;DHT22;149;51.094;17.002;2023-04-15T01:06:55;10.80;99.90
324;DHT22;149;51.094;17.002;2023-04-15T01:09:22;10.70;99.90
324;DHT22;149;51.094;17.002;2023-04-15T01:11:49;10.70;99.90
324;DHT22;149;51.094;17.002;2023-04-15T01:14:16;10.80;99.90
324;DHT22;149;51.094;17.002;2023-04-15T01:16:42;10.70;99.90
324;DHT22;149;51.094;17.002;2023-04-15T01:19:11;10.70;99.90
324;DHT22;149;51.094;17.002;2023-04-15T01:21:40;10.70;99.90
324;DHT22;149;51.094;17.002;2023-04-15T01:24:10;10.80;99.90
324;DHT22;149;51.094;17.002;2023-04-15T01:26:38;10.80;99.90
324;DHT22;149;51.094;17.002;2023-04-15T01:29:05;10.80;99.90
324;DHT22;149;51.094;17.002;2023-04-15T01:31:32;10.70;99.90
324;DHT22;149;51.094;17.002;2023-04-15T01:33:59;10.70;99.90
324;DHT22;149;51.094;17.002;2023-04-15T01:36:27;10.70;99.90
324;DHT22;149;51.094;17.002;2023-04-15T01:38:55;10.70;99.90
324;DHT22;149;51.094;17.002;2023-04-15T01:41:26;10.70;99.90
324;DHT22;149;51.094;17.002;2023-04-15T01:43:54;10.70;99.90
324;DHT22;149;51.094;17.002;2023-04-15T01:46:21;10.70;99.90
324;DHT22;149;51.094;17.002;2023-04-15T01:48:48;10.70;99.90
324;DHT22;149;51.094;17.002;2023-04-15T01:51:16;10.70;99.90
324;DHT22;149;51.094;17.002;2023-04-15T01:53:43;10.70;99.90
324;DHT22;149;51.094;17.002;2023-04-15T01:56:10;10.80;99.90
324;DHT22;149;51.094;17.002;2023-04-15T01:58:37;10.70;99.90
324;DHT22;149;51.094;17.002;2023-04-15T02:01:04;10.70;99.90
324;DHT22;149;51.094;17.002;2023-04-15T02:03:31;10.80;99.90
324;DHT22;149;51.094;17.002;2023-04-15T02:05:58;10.90;99.90
324;DHT22;149;51.094;17.002;2023-04-15T02:08:25;10.70;99.90
324;DHT22;149;51.094;17.002;2023-04-15T02:10:52;10.80;99.90
324;DHT22;149;51.094;17.002;2023-04-15T02:13:20;10.80;99.90
324;DHT22;149;51.094;17.002;2023-04-15T02:15:50;10.70;99.90
324;DHT22;149;51.094;17.002;2023-04-15T02:18:18;10.80;99.90
324;DHT22;149;51.094;17.002;2023-04-15T02:20:45;10.70;99.90
324;DHT22;149;51.094;17.002;2023-04-15T02:23:12;10.70;99.90
324;DHT22;149;51.094;17.002;2023-04-15T02:25:39;10.50;99.90
324;DHT22;149;51.094;17.002;2023-04-15T02:28:06;10.40;99.90
324;DHT22;149;51.094;17.002;2023-04-15T02:30:33;10.50;99.90
324;DHT22;149;51.094;17.002;2023-04-15T02:33:00;10.30;99.90
324;DHT22;149;51.094;17.002;2023-04-15T02:35:27;10.40;99.90
324;DHT22;149;51.094;17.002;2023-04-15T02:37:55;10.60;99.90
324;DHT22;149;51.094;17.002;2023-04-15T02:40:22;10.60;99.90
324;DHT22;149;51.094;17.002;2023-04-15T02:42:49;10.30;99.90
324;DHT22;149;51.094;17.002;2023-04-15T02:45:16;10.10;99.90
324;DHT22;149;51.094;17.002;2023-04-15T02:47:45;10.20;99.90
324;DHT22;149;51.094;17.002;2023-04-15T02:50:13;10.20;99.90
324;DHT22;149;51.094;17.002;2023-04-15T02:52:41;10.20;99.90
324;DHT22;149;51.094;17.002;2023-04-15T02:55:09;10.10;99.90
324;DHT22;149;51.094;17.002;2023-04-15T02:57:36;10.10;99.90
324;DHT22;149;51.094;17.002;2023-04-15T03:00:05;10.10;99.90
324;DHT22;149;51.094;17.002;2023-04-15T03:02:36;10.10;99.90
324;DHT22;149;51.094;17.002;2023-04-15T03:05:04;10.00;99.90
324;DHT22;149;51.094;17.002;2023-04-15T03:07:32;10.00;99.90
324;DHT22;149;51.094;17.002;2023-04-15T03:09:58;10.10;99.90
324;DHT22;149;51.094;17.002;2023-04-15T03:12:25;10.00;99.90
324;DHT22;149;51.094;17.002;2023-04-15T03:14:52;10.00;99.90
324;DHT22;149;51.094;17.002;2023-04-15T03:17:19;9.90;99.90
324;DHT22;149;51.094;17.002;2023-04-15T03:19:46;10.10;99.90
324;DHT22;149;51.094;17.002;2023-04-15T03:22:13;9.80;99.90
324;DHT22;149;51.094;17.002;2023-04-15T03:24:40;9.80;99.90
324;DHT22;149;51.094;17.002;2023-04-15T03:27:07;9.80;99.90
324;DHT22;149;51.094;17.002;2023-04-15T03:29:34;9.80;99.90
324;DHT22;149;51.094;17.002;2023-04-15T03:32:01;9.80;99.90
324;DHT22;149;51.094;17.002;2023-04-15T03:34:28;9.80;99.90
324;DHT22;149;51.094;17.002;2023-04-15T03:36:55;9.70;99.90
324;DHT22;149;51.094;17.002;2023-04-15T03:39:21;9.70;99.90
324;DHT22;149;51.094;17.002;2023-04-15T03:41:49;9.60;99.90
324;DHT22;149;51.094;17.002;2023-04-15T03:44:15;9.60;99.90
324;DHT22;149;51.094;17.002;2023-04-15T03:46:43;9.50;99.90
324;DHT22;149;51.094;17.002;2023-04-15T03:49:10;9.50;99.90
324;DHT22;149;51.094;17.002;2023-04-15T03:51:37;9.50;99.90
324;DHT22;149;51.094;17.002;2023-04-15T03:54:03;9.30;99.90
324;DHT22;149;51.094;17.002;2023-04-15T03:56:30;9.40;99.90
324;DHT22;149;51.094;17.002;2023-04-15T03:58:57;9.20;99.90
324;DHT22;149;51.094;17.002;2023-04-15T04:01:24;9.10;99.90
324;DHT22;149;51.094;17.002;2023-04-15T04:03:51;9.10;99.90
324;DHT22;149;51.094;17.002;2023-04-15T04:06:19;9.00;99.90
324;DHT22;149;51.094;17.002;2023-04-15T04:08:46;8.90;99.90
324;DHT22;149;51.094;17.002;2023-04-15T04:11:12;8.80;99.90
324;DHT22;149;51.094;17.002;2023-04-15T04:13:39;9.70;99.90
324;DHT22;149;51.094;17.002;2023-04-15T04:16:06;8.70;99.90
324;DHT22;149;51.094;17.002;2023-04-15T04:18:34;8.60;99.90
324;DHT22;149;51.094;17.002;2023-04-15T04:21:01;8.60;99.90
324;DHT22;149;51.094;17.002;2023-04-15T04:23:28;8.50;99.90
324;DHT22;149;51.094;17.002;2023-04-15T04:25:55;8.50;99.90
324;DHT22;149;51.094;17.002;2023-04-15T04:28:22;8.50;99.90
324;DHT22;149;51.094;17.002;2023-04-15T04:30:49;8.50;99.90
324;DHT22;149;51.094;17.002;2023-04-15T04:33:16;8.50;99.90
324;DHT22;149;51.094;17.002;2023-04-15T04:35:43;8.60;99.90
324;DHT22;149;51.094;17.002;2023-04-15T04:38:10;8.60;99.90
324;DHT22;149;51.094;17.002;2023-04-15T04:40:37;8.50;99.90
324;DHT22;149;51.094;17.002;2023-04-15T04:43:04;8.60;99.90
324;DHT22;149;51.094;17.002;2023-04-15T04:45:30;8.60;99.90
324;DHT22;149;51.094;17.002;2023-04-15T04:47:58;8.60;99.90
324;DHT22;149;51.094;17.002;2023-04-15T04:50:24;8.70;99.90
324;DHT22;149;51.094;17.002;2023-04-15T04:52:52;8.80;99.90
324;DHT22;149;51.094;17.002;2023-04-15T04:55:19;8.60;99.90
324;DHT22;149;51.094;17.002;2023-04-15T04:57:46;8.60;99.90
324;DHT22;149;51.094;17.002;2023-04-15T05:00:13;8.60;99.90
324;DHT22;149;51.094;17.002;2023-04-15T05:02:40;8.70;99.90
324;DHT22;149;51.094;17.002;2023-04-15T05:05:10;8.70;99.90
324;DHT22;149;51.094;17.002;2023-04-15T05:07:37;8.70;99.90
324;DHT22;149;51.094;17.002;2023-04-15T05:10:05;8.80;99.90
324;DHT22;149;51.094;17.002;2023-04-15T05:12:33;8.90;99.90
324;DHT22;149;51.094;17.002;2023-04-15T05:15:00;8.80;99.90
324;DHT22;149;51.094;17.002;2023-04-15T05:17:28;8.80;99.90
324;DHT22;149;51.094;17.002;2023-04-15T05:19:56;8.70;99.90
324;DHT22;149;51.094;17.002;2023-04-15T05:22:24;8.90;99.90
324;DHT22;149;51.094;17.002;2023-04-15T05:24:50;8.80;99.90
324;DHT22;149;51.094;17.002;2023-04-15T05:27:17;8.70;99.90
324;DHT22;149;51.094;17.002;2023-04-15T05:29:44;8.70;99.90
324;DHT22;149;51.094;17.002;2023-04-15T05:32:12;8.80;99.90
324;DHT22;149;51.094;17.002;2023-04-15T05:34:39;8.80;99.90
324;DHT22;149;51.094;17.002;2023-04-15T05:37:05;8.90;99.90
324;DHT22;149;51.094;17.002;2023-04-15T05:39:32;9.00;99.90
324;DHT22;149;51.094;17.002;2023-04-15T05:42:00;9.00;99.90
324;DHT22;149;51.094;17.002;2023-04-15T05:44:28;9.20;99.90
324;DHT22;149;51.094;17.002;2023-04-15T05:46:55;9.20;99.90
324;DHT22;149;51.094;17.002;2023-04-15T05:49:22;9.60;99.90
324;DHT22;149;51.094;17.002;2023-04-15T05:51:50;9.50;99.90
324;DHT22;149;51.094;17.002;2023-04-15T05:54:16;9.70;99.90
324;DHT22;149;51.094;17.002;2023-04-15T05:56:45;9.70;99.90
324;DHT22;149;51.094;17.002;2023-04-15T05:59:12;9.70;99.90
324;DHT22;149;51.094;17.002;2023-04-15T06:01:39;9.70;99.90
324;DHT22;149;51.094;17.002;2023-04-15T06:04:06;9.80;99.90
324;DHT22;149;51.094;17.002;2023-04-15T06:06:33;9.90;99.90
324;DHT22;149;51.094;17.002;2023-04-15T06:09:00;9.90;99.90
324;DHT22;149;51.094;17.002;2023-04-15T06:11:27;10.10;99.90
324;DHT22;149;51.094;17.002;2023-04-15T06:13:54;10.10;99.90
324;DHT22;149;51.094;17.002;2023-04-15T06:16:23;10.20;99.90
324;DHT22;149;51.094;17.002;2023-04-15T06:18:50;10.40;99.90
324;DHT22;149;51.094;17.002;2023-04-15T06:21:17;10.60;99.90
324;DHT22;149;51.094;17.002;2023-04-15T06:23:44;10.50;99.90
324;DHT22;149;51.094;17.002;2023-04-15T06:26:12;10.40;99.90
324;DHT22;149;51.094;17.002;2023-04-15T06:28:39;10.40;99.90
324;DHT22;149;51.094;17.002;2023-04-15T06:31:06;10.30;99.90
324;DHT22;149;51.094;17.002;2023-04-15T06:33:32;10.40;99.90
324;DHT22;149;51.094;17.002;2023-04-15T06:36:02;10.30;99.90
324;DHT22;149;51.094;17.002;2023-04-15T06:38:31;10.30;99.90
324;DHT22;149;51.094;17.002;2023-04-15T06:40:58;10.30;99.90
324;DHT22;149;51.094;17.002;2023-04-15T06:43:25;10.50;99.90
324;DHT22;149;51.094;17.002;2023-04-15T06:45:54;10.50;99.90
324;DHT22;149;51.094;17.002;2023-04-15T06:48:23;10.80;99.90
324;DHT22;149;51.094;17.002;2023-04-15T06:50:49;10.70;99.90
324;DHT22;149;51.094;17.002;2023-04-15T06:53:17;10.70;99.90
324;DHT22;149;51.094;17.002;2023-04-15T06:55:44;10.80;99.90
324;DHT22;149;51.094;17.002;2023-04-15T06:58:13;10.70;99.90
324;DHT22;149;51.094;17.002;2023-04-15T07:00:40;10.90;99.90
324;DHT22;149;51.094;17.002;2023-04-15T07:03:11;11.40;99.90
324;DHT22;149;51.094;17.002;2023-04-15T07:05:38;11.60;99.90
324;DHT22;149;51.094;17.002;2023-04-15T07:08:06;11.60;99.90
324;DHT22;149;51.094;17.002;2023-04-15T07:10:35;11.40;99.90
324;DHT22;149;51.094;17.002;2023-04-15T07:13:03;11.30;99.90
324;DHT22;149;51.094;17.002;2023-04-15T07:15:30;11.20;99.90
324;DHT22;149;51.094;17.002;2023-04-15T07:17:57;11.40;99.90
324;DHT22;149;51.094;17.002;2023-04-15T07:20:24;11.60;99.90
324;DHT22;149;51.094;17.002;2023-04-15T07:22:51;11.90;99.90
324;DHT22;149;51.094;17.002;2023-04-15T07:25:19;12.30;99.90
324;DHT22;149;51.094;17.002;2023-04-15T07:27:46;12.50;99.90
324;DHT22;149;51.094;17.002;2023-04-15T07:30:13;12.60;99.90
324;DHT22;149;51.094;17.002;2023-04-15T07:32:41;12.50;99.90
324;DHT22;149;51.094;17.002;2023-04-15T07:35:08;12.60;99.90
324;DHT22;149;51.094;17.002;2023-04-15T07:37:35;12.90;99.90
324;DHT22;149;51.094;17.002;2023-04-15T07:40:03;13.00;99.90
324;DHT22;149;51.094;17.002;2023-04-15T07:42:31;12.70;99.90
324;DHT22;149;51.094;17.002;2023-04-15T07:44:57;12.10;99.90
324;DHT22;149;51.094;17.002;2023-04-15T07:47:24;12.20;99.90
324;DHT22;149;51.094;17.002;2023-04-15T07:49:53;12.30;99.90
324;DHT22;149;51.094;17.002;2023-04-15T07:52:19;12.10;99.90
324;DHT22;149;51.094;17.002;2023-04-15T07:54:47;12.30;99.90
324;DHT22;149;51.094;17.002;2023-04-15T07:57:14;12.40;99.90
324;DHT22;149;51.094;17.002;2023-04-15T07:59:43;12.50;99.90
324;DHT22;149;51.094;17.002;2023-04-15T08:02:10;13.00;99.90
324;DHT22;149;51.094;17.002;2023-04-15T08:04:37;13.70;99.90
324;DHT22;149;51.094;17.002;2023-04-15T08:07:04;13.60;99.90
324;DHT22;149;51.094;17.002;2023-04-15T08:09:31;13.90;99.90
324;DHT22;149;51.094;17.002;2023-04-15T08:11:58;14.10;99.90
324;DHT22;149;51.094;17.002;2023-04-15T08:14:25;14.70;99.90
324;DHT22;149;51.094;17.002;2023-04-15T08:16:52;15.10;99.90
324;DHT22;149;51.094;17.002;2023-04-15T08:19:19;15.00;99.90
324;DHT22;149;51.094;17.002;2023-04-15T08:21:46;15.10;99.90
324;DHT22;149;51.094;17.002;2023-04-15T08:24:13;15.20;99.90
324;DHT22;149;51.094;17.002;2023-04-15T08:26:41;15.50;99.90
324;DHT22;149;51.094;17.002;2023-04-15T08:29:08;16.40;99.90
324;DHT22;149;51.094;17.002;2023-04-15T08:31:35;17.80;99.90
324;DHT22;149;51.094;17.002;2023-04-15T08:34:02;20.20;99.90
324;DHT22;149;51.094;17.002;2023-04-15T08:36:29;22.10;99.90
324;DHT22;149;51.094;17.002;2023-04-15T08:38:57;23.10;99.50
324;DHT22;149;51.094;17.002;2023-04-15T08:41:26;25.40;97.00
324;DHT22;149;51.094;17.002;2023-04-15T08:44:04;26.70;84.40
324;DHT22;149;51.094;17.002;2023-04-15T08:46:32;27.10;77.00
324;DHT22;149;51.094;17.002;2023-04-15T08:49:03;25.50;77.20
324;DHT22;149;51.094;17.002;2023-04-15T08:51:31;25.10;80.70
324;DHT22;149;51.094;17.002;2023-04-15T08:53:59;25.00;83.80
324;DHT22;149;51.094;17.002;2023-04-15T08:56:27;24.30;81.10
324;DHT22;149;51.094;17.002;2023-04-15T08:58:57;23.20;91.00
324;DHT22;149;51.094;17.002;2023-04-15T09:01:25;22.50;93.10
324;DHT22;149;51.094;17.002;2023-04-15T09:03:52;23.40;92.70
324;DHT22;149;51.094;17.002;2023-04-15T09:06:23;24.70;90.80
324;DHT22;149;51.094;17.002;2023-04-15T09:08:51;25.50;88.30
324;DHT22;149;51.094;17.002;2023-04-15T09:11:20;24.50;89.40
324;DHT22;149;51.094;17.002;2023-04-15T09:13:48;25.60;85.80
324;DHT22;149;51.094;17.002;2023-04-15T09:16:15;25.50;81.10
324;DHT22;149;51.094;17.002;2023-04-15T09:18:42;23.40;84.90
324;DHT22;149;51.094;17.002;2023-04-15T09:21:09;22.50;93.10
324;DHT22;149;51.094;17.002;2023-04-15T09:23:38;21.10;91.60
324;DHT22;149;51.094;17.002;2023-04-15T09:26:05;21.20;94.40
324;DHT22;149;51.094;17.002;2023-04-15T09:28:32;20.40;99.90
324;DHT22;149;51.094;17.002;2023-04-15T09:31:01;19.20;99.90
324;DHT22;149;51.094;17.002;2023-04-15T09:33:29;18.40;99.90
324;DHT22;149;51.094;17.002;2023-04-15T09:38:24;17.70;99.90
324;DHT22;149;51.094;17.002;2023-04-15T09:40:51;17.50;99.90
324;DHT22;149;51.094;17.002;2023-04-15T09:43:18;17.10;99.90
324;DHT22;149;51.094;17.002;2023-04-15T09:45:51;17.00;99.90
324;DHT22;149;51.094;17.002;2023-04-15T09:48:23;17.00;99.90
324;DHT22;149;51.094;17.002;2023-04-15T09:50:52;17.30;99.90
324;DHT22;149;51.094;17.002;2023-04-15T09:53:21;17.10;99.90
324;DHT22;149;51.094;17.002;2023-04-15T09:55:56;17.50;99.90
324;DHT22;149;51.094;17.002;2023-04-15T09:58:25;17.40;99.90
324;DHT22;149;51.094;17.002;2023-04-15T10:00:54;16.90;99.90
324;DHT22;149;51.094;17.002;2023-04-15T10:03:30;16.60;99.90
324;DHT22;149;51.094;17.002;2023-04-15T10:06:00;16.50;99.90
324;DHT22;149;51.094;17.002;2023-04-15T10:08:30;16.20;99.90
324;DHT22;149;51.094;17.002;2023-04-15T10:11:00;16.20;99.90
324;DHT22;149;51.094;17.002;2023-04-15T10:13:30;16.50;99.90
324;DHT22;149;51.094;17.002;2023-04-15T10:16:12;16.30;99.90
324;DHT22;149;51.094;17.002;2023-04-15T10:18:43;16.10;99.90
324;DHT22;149;51.094;17.002;2023-04-15T10:21:10;16.00;99.90
324;DHT22;149;51.094;17.002;2023-04-15T10:23:40;16.30;99.90
324;DHT22;149;51.094;17.002;2023-04-15T10:26:07;16.80;99.90
324;DHT22;149;51.094;17.002;2023-04-15T10:28:35;17.30;99.90
324;DHT22;149;51.094;17.002;2023-04-15T10:31:04;18.00;99.90
324;DHT22;149;51.094;17.002;2023-04-15T10:33:31;18.20;99.90
324;DHT22;149;51.094;17.002;2023-04-15T10:35:59;18.00;99.90
324;DHT22;149;51.094;17.002;2023-04-15T10:43:52;17.50;99.90
324;DHT22;149;51.094;17.002;2023-04-15T10:46:26;17.40;99.90
324;DHT22;149;51.094;17.002;2023-04-15T10:49:06;17.30;99.90
324;DHT22;149;51.094;17.002;2023-04-15T10:51:37;17.50;99.90
324;DHT22;149;51.094;17.002;2023-04-15T10:54:31;17.70;99.90
324;DHT22;149;51.094;17.002;2023-04-15T11:02:16;17.60;99.90
324;DHT22;149;51.094;17.002;2023-04-15T11:04:57;17.60;99.90
324;DHT22;149;51.094;17.002;2023-04-15T11:12:53;17.70;99.90
324;DHT22;149;51.094;17.002;2023-04-15T11:15:32;17.60;99.90
324;DHT22;149;51.094;17.002;2023-04-15T11:20:47;17.60;99.90
324;DHT22;149;51.094;17.002;2023-04-15T11:23:15;18.00;99.90
324;DHT22;149;51.094;17.002;2023-04-15T11:25:44;18.60;99.90
324;DHT22;149;51.094;17.002;2023-04-15T11:28:12;18.70;99.90
324;DHT22;149;51.094;17.002;2023-04-15T11:30:39;18.60;99.90
324;DHT22;149;51.094;17.002;2023-04-15T11:33:09;19.00;99.90
324;DHT22;149;51.094;17.002;2023-04-15T11:35:40;19.20;99.90
324;DHT22;149;51.094;17.002;2023-04-15T11:38:09;19.80;99.90
324;DHT22;149;51.094;17.002;2023-04-15T11:40:40;19.40;99.90
324;DHT22;149;51.094;17.002;2023-04-15T11:43:16;18.90;99.90
324;DHT22;149;51.094;17.002;2023-04-15T11:48:21;19.30;99.90
324;DHT22;149;51.094;17.002;2023-04-15T11:51:02;19.40;99.90
324;DHT22;149;51.094;17.002;2023-04-15T11:53:49;19.80;99.90
324;DHT22;149;51.094;17.002;2023-04-15T11:56:19;19.60;99.90
324;DHT22;149;51.094;17.002;2023-04-15T11:58:47;19.10;99.90
324;DHT22;149;51.094;17.002;2023-04-15T12:01:16;19.00;99.90
324;DHT22;149;51.094;17.002;2023-04-15T12:03:48;19.50;99.90
324;DHT22;149;51.094;17.002;2023-04-15T12:06:20;19.60;99.90
324;DHT22;149;51.094;17.002;2023-04-15T12:14:11;19.70;99.90
324;DHT22;149;51.094;17.002;2023-04-15T12:17:01;19.60;99.90
324;DHT22;149;51.094;17.002;2023-04-15T12:22:02;19.80;99.90
324;DHT22;149;51.094;17.002;2023-04-15T12:24:34;19.50;99.90
324;DHT22;149;51.094;17.002;2023-04-15T12:27:03;19.40;99.90
324;DHT22;149;51.094;17.002;2023-04-15T12:29:31;19.50;99.90
324;DHT22;149;51.094;17.002;2023-04-15T12:32:12;19.30;99.90
324;DHT22;149;51.094;17.002;2023-04-15T12:34:48;19.10;99.90
324;DHT22;149;51.094;17.002;2023-04-15T12:37:16;18.90;99.90
324;DHT22;149;51.094;17.002;2023-04-15T12:39:47;18.70;99.90
324;DHT22;149;51.094;17.002;2023-04-15T12:42:15;18.90;99.90
324;DHT22;149;51.094;17.002;2023-04-15T12:44:43;18.70;99.90
324;DHT22;149;51.094;17.002;2023-04-15T12:47:10;19.00;99.90
324;DHT22;149;51.094;17.002;2023-04-15T12:49:38;19.00;99.90
324;DHT22;149;51.094;17.002;2023-04-15T12:52:05;19.00;99.90
324;DHT22;149;51.094;17.002;2023-04-15T12:54:32;19.20;99.90
324;DHT22;149;51.094;17.002;2023-04-15T12:57:00;19.50;99.90
324;DHT22;149;51.094;17.002;2023-04-15T12:59:32;19.10;99.90
324;DHT22;149;51.094;17.002;2023-04-15T13:01:58;19.00;99.90
324;DHT22;149;51.094;17.002;2023-04-15T13:04:26;19.10;99.90
324;DHT22;149;51.094;17.002;2023-04-15T13:06:56;19.30;99.90
324;DHT22;149;51.094;17.002;2023-04-15T13:09:23;19.30;99.90
324;DHT22;149;51.094;17.002;2023-04-15T13:11:50;19.10;99.90
324;DHT22;149;51.094;17.002;2023-04-15T13:14:18;18.50;99.90
324;DHT22;149;51.094;17.002;2023-04-15T13:16:45;18.30;99.90
324;DHT22;149;51.094;17.002;2023-04-15T13:19:12;18.40;99.90
324;DHT22;149;51.094;17.002;2023-04-15T13:21:39;17.90;99.90
324;DHT22;149;51.094;17.002;2023-04-15T13:24:06;17.50;99.90
324;DHT22;149;51.094;17.002;2023-04-15T13:26:34;17.20;99.90
324;DHT22;149;51.094;17.002;2023-04-15T13:29:01;17.30;99.90
324;DHT22;149;51.094;17.002;2023-04-15T13:31:27;17.40;99.90
324;DHT22;149;51.094;17.002;2023-04-15T13:33:56;17.40;99.90
324;DHT22;149;51.094;17.002;2023-04-15T13:36:23;17.60;99.90
324;DHT22;149;51.094;17.002;2023-04-15T13:38:50;17.60;99.90
324;DHT22;149;51.094;17.002;2023-04-15T13:41:17;17.50;99.90
324;DHT22;149;51.094;17.002;2023-04-15T13:43:44;17.40;99.90
324;DHT22;149;51.094;17.002;2023-04-15T13:46:11;17.10;99.90
324;DHT22;149;51.094;17.002;2023-04-15T13:48:38;17.00;99.90
324;DHT22;149;51.094;17.002;2023-04-15T13:51:06;16.90;99.90
324;DHT22;149;51.094;17.002;2023-04-15T13:53:32;16.90;99.90
324;DHT22;149;51.094;17.002;2023-04-15T13:56:09;16.70;99.90
324;DHT22;149;51.094;17.002;2023-04-15T13:58:40;16.70;99.90
324;DHT22;149;51.094;17.002;2023-04-15T14:01:08;16.50;99.90
324;DHT22;149;51.094;17.002;2023-04-15T14:03:43;16.30;99.90
324;DHT22;149;51.094;17.002;2023-04-15T14:06:12;16.30;99.90
324;DHT22;149;51.094;17.002;2023-04-15T14:08:46;16.20;99.90
324;DHT22;149;51.094;17.002;2023-04-15T14:11:14;16.10;99.90
324;DHT22;149;51.094;17.002;2023-04-15T14:13:45;15.90;99.90
324;DHT22;149;51.094;17.002;2023-04-15T14:16:16;15.80;99.90
324;DHT22;149;51.094;17.002;2023-04-15T14:18:44;15.30;99.90
324;DHT22;149;51.094;17.002;2023-04-15T14:21:11;15.10;99.90
324;DHT22;149;51.094;17.002;2023-04-15T14:23:38;14.90;99.90
324;DHT22;149;51.094;17.002;2023-04-15T14:26:05;14.90;99.90
324;DHT22;149;51.094;17.002;2023-04-15T14:28:32;14.90;99.90
324;DHT22;149;51.094;17.002;2023-04-15T14:30:59;15.00;99.90
324;DHT22;149;51.094;17.002;2023-04-15T14:33:26;15.10;99.90
324;DHT22;149;51.094;17.002;2023-04-15T14:35:53;15.40;99.90
324;DHT22;149;51.094;17.002;2023-04-15T14:38:20;15.40;99.90
324;DHT22;149;51.094;17.002;2023-04-15T14:40:48;15.40;99.90
324;DHT22;149;51.094;17.002;2023-04-15T14:43:15;15.60;99.90
324;DHT22;149;51.094;17.002;2023-04-15T14:45:41;15.40;99.90
324;DHT22;149;51.094;17.002;2023-04-15T14:48:11;15.40;99.90
324;DHT22;149;51.094;17.002;2023-04-15T14:50:39;15.10;99.90
324;DHT22;149;51.094;17.002;2023-04-15T14:53:05;14.90;99.90
324;DHT22;149;51.094;17.002;2023-04-15T14:55:32;14.80;99.90
324;DHT22;149;51.094;17.002;2023-04-15T14:57:59;15.00;99.90
324;DHT22;149;51.094;17.002;2023-04-15T15:00:28;15.10;99.90
324;DHT22;149;51.094;17.002;2023-04-15T15:02:55;15.10;99.90
324;DHT22;149;51.094;17.002;2023-04-15T15:05:22;15.10;99.90
324;DHT22;149;51.094;17.002;2023-04-15T15:07:49;15.10;99.90
324;DHT22;149;51.094;17.002;2023-04-15T15:10:16;15.10;99.90
324;DHT22;149;51.094;17.002;2023-04-15T15:13:03;15.20;99.90
324;DHT22;149;51.094;17.002;2023-04-15T15:15:31;15.70;99.90
324;DHT22;149;51.094;17.002;2023-04-15T15:17:58;15.90;99.90
324;DHT22;149;51.094;17.002;2023-04-15T15:20:27;15.60;99.90
324;DHT22;149;51.094;17.002;2023-04-15T15:22:54;15.20;99.90
324;DHT22;149;51.094;17.002;2023-04-15T15:25:21;15.10;99.90
324;DHT22;149;51.094;17.002;2023-04-15T15:27:48;15.00;99.90
324;DHT22;149;51.094;17.002;2023-04-15T15:30:15;14.90;99.90
324;DHT22;149;51.094;17.002;2023-04-15T15:32:41;14.90;99.90
324;DHT22;149;51.094;17.002;2023-04-15T15:35:09;14.80;99.90
324;DHT22;149;51.094;17.002;2023-04-15T15:37:36;14.80;99.90
324;DHT22;149;51.094;17.002;2023-04-15T15:40:04;14.80;99.90
324;DHT22;149;51.094;17.002;2023-04-15T15:42:31;14.70;99.90
324;DHT22;149;51.094;17.002;2023-04-15T15:44:58;14.70;99.90
324;DHT22;149;51.094;17.002;2023-04-15T15:47:25;14.70;99.90
324;DHT22;149;51.094;17.002;2023-04-15T15:49:53;14.90;99.90
324;DHT22;149;51.094;17.002;2023-04-15T15:52:20;14.80;99.90
324;DHT22;149;51.094;17.002;2023-04-15T15:54:47;14.80;99.90
324;DHT22;149;51.094;17.002;2023-04-15T15:57:14;14.90;99.90
324;DHT22;149;51.094;17.002;2023-04-15T15:59:41;14.70;99.90
324;DHT22;149;51.094;17.002;2023-04-15T16:02:09;14.50;99.90
324;DHT22;149;51.094;17.002;2023-04-15T16:04:37;14.40;99.90
324;DHT22;149;51.094;17.002;2023-04-15T16:07:04;14.20;99.90
324;DHT22;149;51.094;17.002;2023-04-15T16:09:31;14.10;99.90
324;DHT22;149;51.094;17.002;2023-04-15T16:11:59;14.10;99.90
324;DHT22;149;51.094;17.002;2023-04-15T16:14:27;14.10;99.90
324;DHT22;149;51.094;17.002;2023-04-15T16:16:54;14.10;99.90
324;DHT22;149;51.094;17.002;2023-04-15T16:19:22;14.10;99.90
324;DHT22;149;51.094;17.002;2023-04-15T16:21:49;14.10;99.90
324;DHT22;149;51.094;17.002;2023-04-15T16:24:16;14.00;99.90
324;DHT22;149;51.094;17.002;2023-04-15T16:26:43;14.00;99.90
324;DHT22;149;51.094;17.002;2023-04-15T16:29:09;13.90;99.90
324;DHT22;149;51.094;17.002;2023-04-15T16:31:36;13.90;99.90
324;DHT22;149;51.094;17.002;2023-04-15T16:34:05;13.80;99.90
324;DHT22;149;51.094;17.002;2023-04-15T16:36:33;13.70;99.90
324;DHT22;149;51.094;17.002;2023-04-15T16:39:00;13.50;99.90
324;DHT22;149;51.094;17.002;2023-04-15T16:41:28;13.50;99.90
324;DHT22;149;51.094;17.002;2023-04-15T16:43:58;13.50;99.90
324;DHT22;149;51.094;17.002;2023-04-15T16:46:29;13.40;99.90
324;DHT22;149;51.094;17.002;2023-04-15T16:49:00;13.30;99.90
324;DHT22;149;51.094;17.002;2023-04-15T16:51:28;13.30;99.90
324;DHT22;149;51.094;17.002;2023-04-15T16:53:57;13.20;99.90
324;DHT22;149;51.094;17.002;2023-04-15T16:56:24;13.10;99.90
324;DHT22;149;51.094;17.002;2023-04-15T16:58:52;13.00;99.90